createdAt,value
2022-08-22T00:02:09.020Z,61.48
2022-08-22T00:05:09.013Z,61.59
2022-08-22T00:08:03.133Z,61.65
2022-08-22T00:10:57.888Z,61.81
2022-08-22T00:14:01.289Z,61.85
2022-08-22T00:17:00.329Z,61.86
2022-08-22T00:19:49.016Z,61.98
2022-08-22T00:22:44.846Z,62.12
2022-08-22T00:25:41.914Z,62.12
2022-08-22T00:28:36.560Z,62.04
2022-08-22T00:31:15.403Z,62.13
2022-08-22T00:34:05.457Z,62.20
2022-08-22T00:36:56.539Z,62.25
2022-08-22T00:39:49.771Z,62.31
2022-08-22T00:42:55.393Z,62.41
2022-08-22T00:46:08.079Z,62.47
2022-08-22T00:49:10.598Z,62.48
2022-08-22T00:52:30.270Z,62.56
2022-08-22T00:55:37.719Z,62.51
2022-08-22T00:58:54.063Z,62.51
2022-08-22T01:01:57.158Z,62.55
2022-08-22T01:04:49.851Z,62.51
2022-08-22T01:07:52.099Z,62.59
2022-08-22T01:10:55.520Z,62.67
2022-08-22T01:13:59.673Z,62.72
2022-08-22T01:17:10.934Z,62.67
2022-08-22T01:20:42.060Z,62.68
2022-08-22T01:24:12.601Z,62.78
2022-08-22T01:27:24.724Z,62.63
2022-08-22T01:30:17.975Z,62.80
2022-08-22T01:33:32.673Z,62.82
2022-08-22T01:36:46.641Z,62.73
2022-08-22T01:40:02.683Z,62.91
2022-08-22T01:43:07.193Z,62.93
2022-08-22T01:46:21.497Z,62.99
2022-08-22T01:49:20.513Z,62.94
2022-08-22T01:52:19.552Z,63.05
2022-08-22T01:55:21.275Z,63.03
2022-08-22T01:58:18.554Z,63.12
2022-08-22T02:01:20.083Z,63.26
2022-08-22T02:04:17.166Z,63.36
2022-08-22T02:07:14.693Z,63.55
2022-08-22T02:10:14.715Z,63.61
2022-08-22T02:13:25.422Z,63.64
2022-08-22T02:16:25.679Z,63.82
2022-08-22T02:19:18.318Z,63.90
2022-08-22T02:22:24.320Z,63.94
2022-08-22T02:25:19.095Z,64.06
2022-08-22T02:28:12.797Z,64.00
2022-08-22T02:31:06.850Z,63.99
2022-08-22T02:33:58.869Z,63.97
2022-08-22T02:36:58.229Z,64.03
2022-08-22T02:39:54.095Z,63.99
2022-08-22T02:42:49.493Z,64.07
2022-08-22T02:45:46.618Z,64.18
2022-08-22T02:48:42.116Z,64.15
2022-08-22T02:51:40.956Z,64.23
2022-08-22T02:54:37.104Z,64.10
2022-08-22T02:57:39.371Z,64.07
2022-08-22T03:00:41.203Z,64.18
2022-08-22T03:03:37.248Z,64.10
2022-08-22T03:06:40.219Z,64.12
2022-08-22T03:09:25.146Z,64.22
2022-08-22T03:12:21.506Z,64.17
2022-08-22T03:15:21.427Z,64.14
2022-08-22T03:18:22.476Z,64.19
2022-08-22T03:21:18.442Z,64.18
2022-08-22T03:24:12.490Z,64.22
2022-08-22T03:27:05.761Z,64.30
2022-08-22T03:29:58.640Z,64.37
2022-08-22T03:32:49.196Z,64.29
2022-08-22T03:35:37.789Z,64.30
2022-08-22T03:38:39.850Z,64.32
2022-08-22T03:41:48.951Z,64.44
2022-08-22T03:45:19.185Z,64.41
2022-08-22T03:48:31.816Z,64.38
2022-08-22T03:51:47.419Z,64.35
2022-08-22T03:55:04.952Z,64.44
2022-08-22T03:58:27.905Z,64.49
2022-08-22T04:01:58.057Z,64.45
2022-08-22T04:05:14.655Z,64.47
2022-08-22T04:08:43.785Z,64.44
2022-08-22T04:12:10.275Z,64.54
2022-08-22T04:15:45.102Z,64.49
2022-08-22T04:19:08.005Z,64.44
2022-08-22T04:22:23.239Z,64.53
2022-08-22T04:25:17.255Z,64.49
2022-08-22T04:28:17.276Z,64.49
2022-08-22T04:31:11.350Z,64.44
2022-08-22T04:34:06.574Z,64.45
2022-08-22T04:37:00.025Z,64.47
2022-08-22T04:39:57.285Z,64.37
2022-08-22T04:42:53.328Z,64.55
2022-08-22T04:45:42.037Z,64.49
2022-08-22T04:48:29.196Z,64.53
2022-08-22T04:51:26.419Z,64.73
2022-08-22T04:54:38.865Z,64.58
2022-08-22T04:57:42.584Z,64.75
2022-08-22T05:00:41.462Z,64.84
2022-08-22T05:03:24.722Z,65.11
2022-08-22T05:06:06.192Z,65.34
2022-08-22T05:08:58.902Z,65.17
2022-08-22T05:11:30.475Z,64.75
2022-08-22T05:14:28.759Z,64.35
2022-08-22T05:17:22.960Z,63.69
2022-08-22T05:20:17.860Z,63.53
2022-08-22T05:23:18.685Z,64.08
2022-08-22T05:26:10.549Z,64.64
2022-08-22T05:29:04.056Z,64.60
2022-08-22T05:31:57.557Z,64.48
2022-08-22T05:34:48.272Z,63.78
2022-08-22T05:37:40.276Z,63.06
2022-08-22T05:40:31.423Z,62.48
2022-08-22T05:43:23.103Z,62.37
2022-08-22T05:46:20.228Z,62.36
2022-08-22T05:49:20.584Z,62.35
2022-08-22T05:52:19.519Z,62.39
2022-08-22T05:55:22.699Z,62.62
2022-08-22T05:58:30.113Z,62.61
2022-08-22T06:01:28.952Z,62.65
2022-08-22T06:04:26.192Z,62.76
2022-08-22T06:07:21.572Z,62.83
2022-08-22T06:10:21.243Z,62.73
2022-08-22T06:13:11.474Z,62.75
2022-08-22T06:16:08.440Z,62.76
2022-08-22T06:18:59.189Z,62.66
2022-08-22T06:21:50.789Z,62.65
2022-08-22T06:24:41.827Z,62.64
2022-08-22T06:27:32.125Z,62.63
2022-08-22T06:30:24.173Z,62.66
2022-08-22T06:33:21.615Z,62.59
2022-08-22T06:36:31.146Z,62.73
2022-08-22T06:39:23.433Z,62.70
2022-08-22T06:42:17.215Z,62.78
2022-08-22T06:45:10.791Z,62.77
2022-08-22T06:48:16.762Z,62.70
2022-08-22T06:51:08.482Z,62.53
2022-08-22T06:54:03.068Z,62.37
2022-08-22T06:56:54.864Z,62.32
2022-08-22T06:59:44.344Z,62.17
2022-08-22T07:02:40.086Z,62.15
2022-08-22T07:05:36.032Z,62.08
2022-08-22T07:08:27.126Z,62.08
2022-08-22T07:11:21.267Z,62.02
2022-08-22T07:14:12.080Z,61.98
2022-08-22T07:17:03.081Z,62.08
2022-08-22T07:19:59.630Z,62.20
2022-08-22T07:22:54.569Z,62.12
2022-08-22T07:25:53.548Z,62.09
2022-08-22T07:28:51.471Z,61.95
2022-08-22T07:31:57.978Z,61.95
2022-08-22T07:35:08.924Z,61.92
2022-08-22T07:38:13.315Z,61.72
2022-08-22T07:41:12.821Z,61.67
2022-08-22T07:44:13.783Z,61.68
2022-08-22T07:47:00.548Z,61.63
2022-08-22T07:49:50.077Z,61.57
2022-08-22T07:52:44.194Z,61.45
2022-08-22T07:55:33.878Z,61.37
2022-08-22T07:58:35.479Z,61.37
2022-08-22T08:01:26.135Z,61.38
2022-08-22T08:04:21.149Z,61.14
2022-08-22T10:38:31.787Z,57.88
2022-08-22T10:41:32.425Z,57.83
2022-08-22T10:44:30.231Z,58.16
2022-08-22T10:47:25.638Z,58.25
2022-08-22T10:50:18.287Z,58.01
2022-08-22T10:53:29.845Z,57.95
2022-08-22T10:56:30.082Z,57.57
2022-08-22T10:59:35.189Z,57.58
2022-08-22T11:02:44.739Z,57.75
2022-08-22T11:05:41.307Z,58.12
2022-08-22T11:09:14.175Z,57.89
2022-08-22T11:12:10.501Z,58.03
2022-08-22T11:15:07.182Z,57.52
2022-08-22T11:18:20.582Z,56.96
2022-08-22T11:21:18.152Z,57.06
2022-08-22T11:24:34.869Z,56.78
2022-08-22T11:27:39.710Z,56.51
2022-08-22T11:30:46.517Z,56.34
2022-08-22T11:33:47.191Z,56.00
2022-08-22T11:36:46.563Z,55.93
2022-08-22T11:39:42.540Z,55.75
2022-08-22T11:42:47.377Z,55.48
2022-08-22T11:45:51.610Z,55.58
2022-08-22T11:48:52.842Z,55.50
2022-08-22T11:51:58.618Z,55.44
2022-08-22T11:55:05.127Z,55.65
2022-08-22T11:57:58.573Z,55.49
2022-08-22T12:00:55.448Z,55.48
2022-08-22T12:03:58.965Z,55.42
2022-08-22T12:07:01.799Z,55.46
2022-08-22T12:09:55.156Z,55.20
2022-08-22T12:13:00.683Z,55.24
2022-08-22T12:16:00.034Z,55.11
2022-08-22T12:18:55.520Z,55.14
2022-08-22T12:22:06.372Z,55.01
2022-08-22T12:25:08.467Z,54.89
2022-08-22T12:28:15.842Z,54.97
2022-08-22T12:31:17.146Z,54.93
2022-08-22T12:34:15.635Z,54.94
2022-08-22T12:37:18.483Z,54.98
2022-08-22T12:40:27.347Z,54.96
2022-08-22T12:43:27.548Z,54.90
2022-08-22T12:46:37.217Z,54.89
2022-08-22T12:49:52.281Z,54.80
2022-08-22T12:53:00.579Z,54.79
2022-08-22T12:56:10.288Z,54.88
2022-08-22T12:59:23.379Z,54.85
2022-08-22T13:02:19.578Z,54.90
2022-08-22T13:05:19.823Z,54.98
2022-08-22T13:08:04.624Z,55.04
2022-08-22T13:11:01.215Z,55.00
2022-08-22T13:13:56.783Z,54.85
2022-08-22T13:16:51.131Z,54.99
2022-08-22T13:19:53.083Z,54.82
2022-08-22T13:22:45.639Z,54.88
2022-08-22T13:26:07.969Z,55.02
2022-08-22T13:29:24.051Z,54.82
2022-08-22T13:32:20.612Z,54.64
2022-08-22T13:35:24.422Z,54.79
2022-08-22T13:38:25.849Z,54.65
2022-08-22T13:41:21.568Z,54.46
2022-08-22T13:44:17.532Z,54.54
2022-08-22T13:47:14.170Z,54.50
2022-08-22T13:50:13.946Z,54.54
2022-08-22T13:53:09.125Z,54.56
2022-08-22T13:56:15.582Z,54.50
2022-08-22T13:59:00.096Z,54.42
2022-08-22T14:01:57.073Z,54.42
2022-08-22T14:04:50.188Z,54.30
2022-08-22T14:11:41.975Z,54.09
2022-08-22T14:14:11.115Z,54.22
2022-08-22T14:16:50.130Z,54.14
2022-08-22T14:19:30.467Z,54.19
2022-08-22T14:22:07.369Z,54.10
2022-08-22T14:24:47.985Z,54.11
2022-08-22T14:27:30.415Z,54.03
2022-08-22T14:30:03.615Z,54.02
2022-08-22T14:32:47.485Z,53.95
2022-08-22T14:35:34.830Z,54.03
2022-08-22T14:38:29.737Z,54.00
2022-08-22T14:41:03.686Z,53.99
2022-08-22T14:43:47.938Z,53.87
2022-08-22T14:46:23.507Z,54.05
2022-08-22T14:49:26.597Z,54.03
2022-08-22T14:52:05.989Z,54.02
2022-08-22T14:54:35.162Z,53.88
2022-08-22T14:57:10.138Z,54.01
2022-08-22T14:59:46.373Z,53.95
2022-08-22T15:02:28.026Z,53.92
2022-08-22T15:05:00.923Z,53.75
2022-08-22T15:07:33.198Z,53.67
2022-08-22T15:10:07.420Z,53.75
2022-08-22T15:12:48.981Z,53.73
2022-08-22T15:15:32.109Z,53.79
2022-08-22T15:18:00.689Z,53.67
2022-08-22T15:20:36.282Z,53.72
2022-08-22T15:23:14.885Z,53.68
2022-08-22T15:25:47.031Z,53.69
2022-08-22T15:28:20.338Z,53.67
2022-08-22T15:31:03.576Z,53.75
2022-08-22T15:33:38.535Z,53.80
2022-08-22T15:36:15.856Z,53.81
2022-08-22T15:38:47.893Z,53.88
2022-08-22T15:41:44.879Z,53.96
2022-08-22T15:44:32.336Z,53.97
2022-08-22T15:47:23.775Z,53.92
2022-08-22T15:49:56.400Z,54.01
2022-08-22T15:52:29.358Z,54.09
2022-08-22T15:55:21.068Z,53.97
2022-08-22T15:57:59.835Z,54.04
2022-08-22T16:00:36.246Z,54.12
2022-08-22T16:03:24.570Z,54.18
2022-08-22T16:05:55.983Z,54.17
2022-08-22T16:08:32.614Z,54.15
2022-08-22T16:11:23.776Z,54.24
2022-08-22T16:14:18.157Z,54.34
2022-08-22T16:16:56.084Z,54.33
2022-08-22T16:19:26.714Z,54.34
2022-08-22T16:22:18.703Z,54.33
2022-08-22T16:25:02.876Z,54.32
2022-08-22T16:27:32.204Z,54.40
2022-08-22T16:30:10.970Z,54.47
2022-08-22T16:32:49.819Z,54.57
2022-08-22T16:35:50.387Z,54.54
2022-08-22T16:38:32.630Z,54.62
2022-08-22T16:41:04.162Z,54.53
2022-08-22T16:43:33.199Z,54.58
2022-08-22T16:46:27.857Z,54.59
2022-08-22T16:49:03.958Z,54.71
2022-08-22T16:51:32.616Z,54.70
2022-08-22T16:54:32.726Z,54.70
2022-08-22T16:57:15.180Z,54.72
2022-08-22T16:59:56.495Z,54.63
2022-08-22T17:02:58.363Z,54.82
2022-08-22T17:05:40.682Z,54.83
2022-08-22T17:08:32.632Z,54.88
2022-08-22T17:11:13.898Z,54.85
2022-08-22T17:14:08.850Z,54.94
2022-08-22T17:16:54.594Z,54.96
2022-08-22T17:19:42.766Z,54.92
2022-08-22T17:22:16.770Z,55.00
2022-08-22T17:24:51.250Z,55.00
2022-08-22T17:27:28.311Z,55.01
2022-08-22T17:30:06.478Z,54.96
2022-08-22T17:32:59.223Z,54.97
2022-08-22T17:35:44.458Z,55.09
2022-08-22T17:38:28.477Z,55.11
2022-08-22T17:41:12.220Z,55.26
2022-08-22T17:43:54.419Z,55.28
2022-08-22T17:46:35.605Z,55.26
2022-08-22T17:49:16.057Z,55.28
2022-08-22T17:51:49.884Z,55.29
2022-08-22T17:54:24.740Z,55.22
2022-08-22T17:57:05.702Z,55.33
2022-08-22T17:59:45.326Z,55.47
2022-08-22T18:02:18.285Z,55.61
2022-08-22T18:04:58.202Z,55.66
2022-08-22T18:07:37.400Z,55.58
2022-08-22T18:10:13.990Z,55.71
2022-08-22T18:12:51.728Z,55.80
2022-08-22T18:15:25.446Z,55.79
2022-08-22T18:18:01.103Z,55.88
2022-08-22T18:20:34.716Z,55.99
2022-08-22T18:23:21.720Z,56.03
2022-08-22T18:26:18.321Z,55.99
2022-08-22T18:28:54.348Z,56.14
2022-08-22T18:31:38.459Z,56.19
2022-08-22T18:34:17.223Z,56.44
2022-08-22T18:36:55.346Z,56.60
2022-08-22T18:39:29.486Z,56.64
2022-08-22T18:42:04.976Z,56.67
2022-08-22T18:44:36.535Z,56.76
2022-08-22T18:47:14.947Z,56.95
2022-08-22T18:49:54.232Z,56.94
2022-08-22T18:52:35.204Z,57.05
2022-08-22T18:55:22.786Z,57.21
2022-08-22T18:58:12.482Z,57.25
2022-08-22T19:00:54.716Z,57.32
2022-08-22T19:03:52.445Z,57.36
2022-08-22T19:06:45.631Z,57.38
2022-08-22T19:09:58.856Z,57.55
2022-08-22T19:12:43.407Z,57.60
2022-08-22T19:15:26.873Z,57.64
2022-08-22T19:18:25.571Z,57.65
2022-08-22T19:21:40.011Z,57.71
2022-08-22T19:24:11.272Z,57.87
2022-08-22T19:26:47.207Z,57.84
2022-08-22T19:29:55.943Z,57.83
2022-08-22T19:32:58.759Z,57.95
2022-08-22T19:35:35.806Z,57.78
2022-08-22T19:38:06.192Z,57.78
2022-08-22T19:40:53.972Z,57.91
2022-08-22T19:43:34.246Z,57.93
2022-08-22T19:46:06.194Z,58.03
2022-08-22T19:48:44.447Z,57.95
2022-08-22T19:51:25.826Z,58.01
2022-08-22T19:54:16.647Z,58.17
2022-08-22T19:57:01.004Z,58.30
2022-08-22T19:59:40.945Z,58.41
2022-08-22T20:02:31.429Z,58.47
2022-08-22T20:05:20.755Z,58.52
2022-08-22T20:08:01.399Z,58.62
2022-08-22T20:10:41.884Z,58.74
2022-08-22T20:13:20.067Z,58.67
2022-08-22T20:16:04.893Z,58.77
2022-08-22T20:19:05.972Z,58.89
2022-08-22T20:21:48.962Z,58.81
2022-08-22T20:24:27.415Z,58.89
2022-08-22T20:27:13.367Z,59.00
2022-08-22T20:29:51.375Z,59.01
2022-08-22T20:32:22.490Z,59.22
2022-08-22T20:34:58.604Z,59.24
2022-08-22T20:38:04.831Z,59.33
2022-08-22T20:40:56.737Z,59.33
2022-08-22T20:43:30.177Z,59.38
2022-08-22T20:46:12.857Z,59.43
2022-08-22T20:48:44.711Z,59.48
2022-08-22T20:51:17.481Z,59.53
2022-08-22T20:53:53.171Z,59.47
2022-08-22T20:56:37.708Z,59.46
2022-08-22T20:59:26.876Z,59.62
2022-08-22T21:01:57.176Z,59.69
2022-08-22T21:04:32.621Z,59.73
2022-08-22T21:07:01.922Z,59.80
2022-08-22T21:09:48.951Z,59.85
2022-08-22T21:12:17.624Z,59.94
2022-08-22T21:14:46.353Z,59.93
2022-08-22T21:17:20.966Z,59.97
2022-08-22T21:19:49.769Z,60.02
2022-08-22T21:22:25.370Z,60.06
2022-08-22T21:24:58.570Z,60.06
2022-08-22T21:27:29.584Z,60.12
2022-08-22T21:30:02.470Z,60.24
2022-08-22T21:32:34.480Z,60.26
2022-08-22T21:35:06.189Z,60.27
2022-08-22T21:37:39.332Z,60.19
2022-08-22T21:40:15.381Z,60.46
2022-08-22T21:42:59.161Z,60.66
2022-08-22T21:45:30.818Z,60.61
2022-08-22T21:48:02.826Z,60.60
2022-08-22T21:50:37.611Z,60.56
2022-08-22T21:53:12.135Z,60.78
2022-08-22T21:55:46.080Z,60.88
2022-08-22T21:58:36.029Z,61.08
2022-08-22T22:01:27.682Z,60.96
2022-08-22T22:03:58.018Z,60.96
2022-08-22T22:06:26.958Z,61.11
2022-08-22T22:08:55.561Z,61.26
2022-08-22T22:11:24.200Z,61.17
2022-08-22T22:13:52.988Z,61.31
2022-08-22T22:16:25.349Z,61.31
2022-08-22T22:18:53.969Z,61.40
2022-08-22T22:21:22.457Z,61.33
2022-08-22T22:23:50.778Z,61.35
2022-08-22T22:26:20.544Z,61.53
2022-08-22T22:28:49.656Z,61.58
2022-08-22T22:31:18.622Z,61.58
2022-08-22T22:33:47.211Z,61.65
2022-08-22T22:36:19.501Z,61.78
2022-08-22T22:38:48.952Z,61.89
2022-08-22T22:41:24.637Z,62.07
2022-08-22T22:43:53.804Z,62.10
2022-08-22T22:46:22.900Z,62.04
2022-08-22T22:48:51.238Z,62.12
2022-08-22T22:51:20.232Z,62.25
2022-08-22T22:53:49.086Z,62.21
2022-08-22T22:56:21.445Z,62.26
2022-08-22T22:58:50.564Z,62.31
2022-08-22T23:01:27.855Z,62.34
2022-08-22T23:04:03.216Z,62.37
2022-08-22T23:06:35.335Z,62.33
2022-08-22T23:09:04.302Z,62.33
2022-08-22T23:11:32.709Z,62.34
2022-08-22T23:14:02.233Z,62.33
2022-08-22T23:16:35.172Z,62.56
2022-08-22T23:19:09.429Z,62.62
2022-08-22T23:21:38.299Z,62.63
2022-08-22T23:24:07.469Z,62.70
2022-08-22T23:26:36.878Z,62.57
2022-08-22T23:29:06.088Z,62.62
2022-08-22T23:31:36.666Z,62.68
2022-08-22T23:34:06.959Z,62.57
2022-08-22T23:36:35.977Z,62.59
2022-08-22T23:39:05.865Z,62.69
2022-08-22T23:41:34.665Z,62.86
2022-08-22T23:44:06.105Z,62.96
2022-08-22T23:46:34.841Z,62.96
2022-08-22T23:49:04.466Z,63.14
2022-08-22T23:51:33.535Z,63.14
2022-08-22T23:54:02.933Z,63.20
2022-08-22T23:56:35.080Z,63.30
2022-08-22T23:59:07.709Z,63.35
